Time;durP1;ratioP1;P1;durP2;ratioP2;P2;SDS_P1;SDS_P2;PMS_P1;PMS_P2;Temp;Humidity;BMP_temperature;BMP_pressure;BME280_temperature;BME280_humidity;BME280_pressure;Samples;Min_cycle;Max_cycle;Signal;HPM_P1;HPM_P2
2023/01/10 00:00:12;;;;;;;1.45;1.27;;;;;;;;;;5073698;28;20254;-61
2023/01/10 00:02:42;;;;;;;1.50;1.02;;;;;;;;;;5073174;28;20211;-63
2023/01/10 00:05:10;;;;;;;1.40;1.10;;;;;;;;;;5079132;28;20195;-61
2023/01/10 00:07:38;;;;;;;2.38;1.48;;;;;;;;;;5092326;28;20285;-62
2023/01/10 00:10:06;;;;;;;0.93;0.77;;;;;;;;;;5083036;28;20611;-62
2023/01/10 00:15:21;;;;;;;3.92;1.50;;;;;;;;;;5087603;28;20201;-62
2023/01/10 00:17:50;;;;;;;1.88;1.17;;;;;;;;;;5073407;28;20211;-62
2023/01/10 00:20:19;;;;;;;1.40;1.13;;;;;;;;;;5074562;28;20576;-63
2023/01/10 00:22:49;;;;;;;0.88;0.82;;;;;;;;;;5073177;28;20226;-62
2023/01/10 00:25:18;;;;;;;2.83;1.30;;;;;;;;;;5074181;28;20599;-63
2023/01/10 00:27:48;;;;;;;4.20;1.33;;;;;;;;;;5073053;28;20682;-63
2023/01/10 00:30:17;;;;;;;1.73;1.20;;;;;;;;;;5072129;28;20284;-62
2023/01/10 00:32:45;;;;;;;1.20;0.98;;;;;;;;;;5073050;28;20206;-62
2023/01/10 00:35:15;;;;;;;1.20;0.90;;;;;;;;;;5076885;28;20658;-63
2023/01/10 00:37:43;;;;;;;1.30;0.80;;;;;;;;;;5090623;28;20203;-63
2023/01/10 00:40:12;;;;;;;2.33;1.35;;;;;;;;;;5090592;28;20225;-63
2023/01/10 00:45:26;;;;;;;2.05;1.48;;;;;;;;;;5072615;28;20188;-63
2023/01/10 00:47:54;;;;;;;1.20;0.90;;;;;;;;;;5080179;28;20543;-63
2023/01/10 00:50:24;;;;;;;1.75;1.42;;;;;;;;;;5093406;28;20211;-62
2023/01/10 00:52:52;;;;;;;3.08;1.13;;;;;;;;;;5092841;28;20579;-63
2023/01/10 00:55:20;;;;;;;2.20;1.42;;;;;;;;;;5087432;28;20650;-62
2023/01/10 00:57:48;;;;;;;1.10;1.00;;;;;;;;;;5092901;28;20211;-62
2023/01/10 01:00:17;;;;;;;1.52;1.10;;;;;;;;;;5083724;28;20232;-63
2023/01/10 01:02:47;;;;;;;2.90;1.52;;;;;;;;;;5071998;28;20277;-63
2023/01/10 01:05:15;;;;;;;2.05;1.65;;;;;;;;;;5073246;28;20214;-63
2023/01/10 01:07:44;;;;;;;1.30;1.20;;;;;;;;;;5073771;28;20203;-63
2023/01/10 01:10:28;;;;;;;1.60;1.00;;;;;;;;;;5073143;28;20200;-63
2023/01/10 01:12:57;;;;;;;5.18;1.25;;;;;;;;;;5072496;28;20207;-62
2023/01/10 01:15:26;;;;;;;1.20;0.90;;;;;;;;;;5073339;28;20218;-61
2023/01/10 01:17:54;;;;;;;4.85;1.45;;;;;;;;;;5072503;28;20621;-62
2023/01/10 01:20:22;;;;;;;1.65;0.80;;;;;;;;;;5072728;28;20204;-62
2023/01/10 01:22:52;;;;;;;1.27;1.17;;;;;;;;;;5071905;28;20228;-62
2023/01/10 01:25:20;;;;;;;0.88;0.80;;;;;;;;;;5072266;28;20204;-62
2023/01/10 01:27:48;;;;;;;1.75;0.90;;;;;;;;;;5071962;28;20565;-62
2023/01/10 01:30:16;;;;;;;1.23;0.90;;;;;;;;;;5072202;28;20548;-63
2023/01/10 01:32:44;;;;;;;2.45;1.13;;;;;;;;;;5071513;28;20199;-62
2023/01/10 01:35:14;;;;;;;2.08;1.40;;;;;;;;;;5072506;28;20617;-61
2023/01/10 01:37:42;;;;;;;2.53;2.33;;;;;;;;;;5089495;28;20275;-63
2023/01/10 01:40:13;;;;;;;1.45;1.30;;;;;;;;;;5093024;28;20654;-62
2023/01/10 01:42:42;;;;;;;1.50;1.40;;;;;;;;;;5092542;28;20211;-62
2023/01/10 01:45:27;;;;;;;2.00;1.30;;;;;;;;;;5093065;28;20203;-62
2023/01/10 01:47:58;;;;;;;1.90;1.42;;;;;;;;;;5092732;28;20213;-62
2023/01/10 01:50:28;;;;;;;3.53;1.42;;;;;;;;;;5091605;28;20189;-61
2023/01/10 01:52:58;;;;;;;4.10;2.15;;;;;;;;;;5091505;28;20207;-62
2023/01/10 01:55:28;;;;;;;3.45;2.45;;;;;;;;;;5092339;28;20657;-61
2023/01/10 01:57:58;;;;;;;6.13;2.75;;;;;;;;;;5091478;28;20680;-61
2023/01/10 02:00:26;;;;;;;3.03;2.30;;;;;;;;;;5092218;28;20183;-61
2023/01/10 02:02:57;;;;;;;1.05;0.95;;;;;;;;;;5089598;28;20577;-61
2023/01/10 02:05:25;;;;;;;3.88;1.00;;;;;;;;;;5091256;28;20198;-62
2023/01/10 02:07:55;;;;;;;1.40;1.30;;;;;;;;;;5091490;28;20205;-62
2023/01/10 02:10:27;;;;;;;1.98;1.58;;;;;;;;;;5091731;28;20199;-61
2023/01/10 02:12:58;;;;;;;2.35;1.30;;;;;;;;;;5092256;28;20188;-61
2023/01/10 02:15:26;;;;;;;8.98;2.25;;;;;;;;;;5091731;28;20542;-63
2023/01/10 02:17:55;;;;;;;3.30;1.10;;;;;;;;;;5078397;28;20569;-62
2023/01/10 02:20:23;;;;;;;3.47;1.60;;;;;;;;;;5083338;28;20203;-62
2023/01/10 02:23:07;;;;;;;8.95;4.38;;;;;;;;;;5091539;28;20219;-62
2023/01/10 02:26:08;;;;;;;1.67;1.58;;;;;;;;;;5090441;28;20198;-61
2023/01/10 02:28:45;;;;;;;2.75;2.15;;;;;;;;;;5090518;28;20194;-62
2023/01/10 02:31:28;;;;;;;5.63;1.90;;;;;;;;;;5091091;28;20202;-62
2023/01/10 02:34:02;;;;;;;2.83;2.13;;;;;;;;;;5071240;28;20201;-62
2023/01/10 02:36:35;;;;;;;2.65;1.80;;;;;;;;;;5093081;28;20190;-62
2023/01/10 02:39:06;;;;;;;1.23;1.20;;;;;;;;;;5095963;28;20192;-62
2023/01/10 02:41:38;;;;;;;3.05;1.33;;;;;;;;;;5075522;28;20199;-62
2023/01/10 02:44:10;;;;;;;2.97;1.15;;;;;;;;;;5075864;28;20195;-62
2023/01/10 02:46:39;;;;;;;1.85;0.95;;;;;;;;;;5074610;28;20265;-62
2023/01/10 02:49:09;;;;;;;1.65;1.52;;;;;;;;;;5075323;28;20210;-62
2023/01/10 02:51:37;;;;;;;2.25;0.80;;;;;;;;;;5074818;28;20226;-62
2023/01/10 02:54:08;;;;;;;1.70;0.90;;;;;;;;;;5075142;28;20200;-62
2023/01/10 02:56:46;;;;;;;1.00;1.00;;;;;;;;;;5073719;28;20659;-62
2023/01/10 02:59:22;;;;;;;2.20;1.10;;;;;;;;;;5074724;28;20256;-62
2023/01/10 03:01:55;;;;;;;1.20;1.08;;;;;;;;;;5074262;28;20249;-64
2023/01/10 03:04:29;;;;;;;6.68;1.25;;;;;;;;;;5073756;28;20206;-62
2023/01/10 03:07:03;;;;;;;4.20;1.17;;;;;;;;;;5074225;28;20650;-62
2023/01/10 03:09:35;;;;;;;2.00;1.30;;;;;;;;;;5078473;28;20196;-62
2023/01/10 03:12:07;;;;;;;1.88;1.42;;;;;;;;;;5093738;28;20196;-62
2023/01/10 03:14:36;;;;;;;2.17;1.42;;;;;;;;;;5090040;28;20188;-62
2023/01/10 03:17:06;;;;;;;2.55;1.55;;;;;;;;;;5083394;28;20560;-62
2023/01/10 03:19:41;;;;;;;4.78;1.30;;;;;;;;;;5094394;28;20267;-62
2023/01/10 03:22:10;;;;;;;1.63;1.52;;;;;;;;;;5085094;28;20300;-63
2023/01/10 03:24:40;;;;;;;2.45;1.40;;;;;;;;;;5091119;28;20199;-62
2023/01/10 03:27:12;;;;;;;15.38;10.18;;;;;;;;;;5091215;28;20192;-62
2023/01/10 03:29:44;;;;;;;77.97;48.20;;;;;;;;;;5074774;28;20229;-62
2023/01/10 03:32:14;;;;;;;223.88;143.75;;;;;;;;;;5074831;28;20176;-62
2023/01/10 03:34:44;;;;;;;74.40;51.72;;;;;;;;;;5074721;28;20204;-62
2023/01/10 03:37:14;;;;;;;19.10;15.48;;;;;;;;;;5074618;28;20195;-62
2023/01/10 03:39:46;;;;;;;13.13;10.07;;;;;;;;;;5080592;28;20191;-61
2023/01/10 03:42:16;;;;;;;10.90;6.82;;;;;;;;;;5094551;28;20708;-62
2023/01/10 03:44:49;;;;;;;7.32;5.78;;;;;;;;;;5095356;28;20191;-61
2023/01/10 03:47:23;;;;;;;2.58;1.65;;;;;;;;;;5094669;28;20638;-61
2023/01/10 03:49:54;;;;;;;10.10;8.65;;;;;;;;;;5094916;28;20195;-64
2023/01/10 03:52:23;;;;;;;13.10;8.23;;;;;;;;;;5094741;28;20597;-63
2023/01/10 03:54:52;;;;;;;22.38;12.05;;;;;;;;;;5093901;28;20209;-63
2023/01/10 03:57:22;;;;;;;19.95;12.43;;;;;;;;;;5093336;28;20209;-62
2023/01/10 03:59:53;;;;;;;14.48;7.45;;;;;;;;;;5094218;28;20238;-63
2023/01/10 04:02:21;;;;;;;15.43;10.00;;;;;;;;;;5093110;28;20207;-62
2023/01/10 04:04:50;;;;;;;25.17;16.10;;;;;;;;;;5092784;28;20200;-63
2023/01/10 04:07:19;;;;;;;32.20;19.55;;;;;;;;;;5080431;28;20207;-63
2023/01/10 04:09:47;;;;;;;13.40;9.90;;;;;;;;;;5093736;28;20205;-63
2023/01/10 04:12:16;;;;;;;5.50;4.13;;;;;;;;;;5093452;28;20203;-63
2023/01/10 04:14:45;;;;;;;5.22;2.40;;;;;;;;;;5093390;28;20207;-63
2023/01/10 04:17:14;;;;;;;5.80;3.70;;;;;;;;;;5078151;28;20196;-63
2023/01/10 04:19:42;;;;;;;6.38;3.25;;;;;;;;;;5072467;28;20571;-63
2023/01/10 04:22:10;;;;;;;7.38;3.10;;;;;;;;;;5073903;28;20635;-63
2023/01/10 04:24:40;;;;;;;14.32;5.57;;;;;;;;;;5080818;28;20203;-61
2023/01/10 04:27:08;;;;;;;14.13;3.83;;;;;;;;;;5078087;28;20196;-61
2023/01/10 04:29:36;;;;;;;5.95;2.78;;;;;;;;;;5074679;28;20607;-62
2023/01/10 04:32:05;;;;;;;11.07;6.63;;;;;;;;;;5074063;28;20208;-63
2023/01/10 04:34:33;;;;;;;12.27;5.72;;;;;;;;;;5073079;28;20241;-63
2023/01/10 04:37:01;;;;;;;16.92;7.70;;;;;;;;;;5073603;28;20886;-62
2023/01/10 04:39:29;;;;;;;8.63;2.80;;;;;;;;;;5073176;28;20200;-62
2023/01/10 04:41:59;;;;;;;10.45;3.47;;;;;;;;;;5073084;28;20214;-62
2023/01/10 04:44:27;;;;;;;13.80;6.00;;;;;;;;;;5073006;28;20635;-61
2023/01/10 04:46:56;;;;;;;14.73;4.50;;;;;;;;;;5073393;28;20210;-62
2023/01/10 04:49:24;;;;;;;12.98;4.80;;;;;;;;;;5073251;28;20203;-62
2023/01/10 04:51:52;;;;;;;5.50;2.25;;;;;;;;;;5071602;28;20276;-62
2023/01/10 04:54:21;;;;;;;5.22;2.03;;;;;;;;;;5073294;28;20207;-62
2023/01/10 04:56:49;;;;;;;9.88;3.85;;;;;;;;;;5071709;28;20258;-62
2023/01/10 04:59:18;;;;;;;11.88;2.97;;;;;;;;;;5072138;28;20235;-62
2023/01/10 05:01:47;;;;;;;14.82;3.80;;;;;;;;;;5071662;28;20570;-62
2023/01/10 05:04:15;;;;;;;7.95;3.35;;;;;;;;;;5071835;28;20220;-62
2023/01/10 05:06:43;;;;;;;8.50;2.83;;;;;;;;;;5072118;28;20218;-62
2023/01/10 05:09:11;;;;;;;7.40;2.78;;;;;;;;;;5073046;28;20214;-63
2023/01/10 05:11:40;;;;;;;14.25;2.70;;;;;;;;;;5072432;28;20196;-63
2023/01/10 05:14:08;;;;;;;15.20;3.47;;;;;;;;;;5072437;28;20204;-63
2023/01/10 05:16:38;;;;;;;9.45;3.03;;;;;;;;;;5073293;28;20207;-62
2023/01/10 05:19:06;;;;;;;9.30;2.67;;;;;;;;;;5076295;28;20295;-63
2023/01/10 05:21:34;;;;;;;11.38;3.22;;;;;;;;;;5073838;28;20218;-63
2023/01/10 05:24:02;;;;;;;12.15;3.17;;;;;;;;;;5074249;28;20219;-63
2023/01/10 05:26:31;;;;;;;10.30;2.17;;;;;;;;;;5073120;28;20210;-63
2023/01/10 05:28:59;;;;;;;8.15;3.10;;;;;;;;;;5073161;28;20663;-61
2023/01/10 05:31:27;;;;;;;11.02;2.83;;;;;;;;;;5074364;28;20206;-62
2023/01/10 05:33:56;;;;;;;13.00;2.50;;;;;;;;;;5074204;28;20200;-63
2023/01/10 05:36:25;;;;;;;14.35;4.22;;;;;;;;;;5089541;28;20230;-62
2023/01/10 05:38:53;;;;;;;5.95;2.25;;;;;;;;;;5073227;28;20566;-63
2023/01/10 05:41:22;;;;;;;12.60;2.80;;;;;;;;;;5073786;28;20212;-63
2023/01/10 05:43:50;;;;;;;10.07;2.08;;;;;;;;;;5072224;28;20220;-62
2023/01/10 05:46:18;;;;;;;10.75;2.40;;;;;;;;;;5078034;28;20230;-63
2023/01/10 05:48:46;;;;;;;8.80;2.30;;;;;;;;;;5079637;28;20539;-62
2023/01/10 05:51:16;;;;;;;4.82;2.22;;;;;;;;;;5080022;28;20214;-61
2023/01/10 05:53:44;;;;;;;8.23;2.22;;;;;;;;;;5073245;28;20207;-63
2023/01/10 05:56:13;;;;;;;6.20;2.38;;;;;;;;;;5090271;28;20199;-63
2023/01/10 05:58:41;;;;;;;10.25;4.47;;;;;;;;;;5093586;28;20237;-63
2023/01/10 06:01:09;;;;;;;17.50;2.50;;;;;;;;;;5093474;28;20620;-63
2023/01/10 06:03:38;;;;;;;5.88;2.05;;;;;;;;;;5093215;28;20223;-62
2023/01/10 06:06:07;;;;;;;12.65;2.67;;;;;;;;;;5092967;28;20203;-63
2023/01/10 06:08:37;;;;;;;14.50;2.92;;;;;;;;;;5086888;28;20245;-63
2023/01/10 06:11:05;;;;;;;8.95;2.50;;;;;;;;;;5081179;28;20195;-64
2023/01/10 06:13:34;;;;;;;8.55;2.92;;;;;;;;;;5083209;28;20199;-63
2023/01/10 06:16:02;;;;;;;14.98;3.40;;;;;;;;;;5089122;28;20210;-63
2023/01/10 06:18:30;;;;;;;8.88;2.38;;;;;;;;;;5085702;28;20528;-63
2023/01/10 06:20:58;;;;;;;14.52;2.65;;;;;;;;;;5083104;28;20192;-63
2023/01/10 06:23:29;;;;;;;11.45;2.75;;;;;;;;;;5090029;28;20271;-63
2023/01/10 06:26:03;;;;;;;5.18;2.63;;;;;;;;;;5081267;28;20194;-63
2023/01/10 06:28:31;;;;;;;14.27;2.60;;;;;;;;;;5082064;28;20279;-63
2023/01/10 06:30:59;;;;;;;11.18;3.25;;;;;;;;;;5081813;28;20268;-63
2023/01/10 06:33:28;;;;;;;10.30;4.25;;;;;;;;;;5081017;28;20255;-63
2023/01/10 06:35:56;;;;;;;15.05;6.15;;;;;;;;;;5085334;28;20298;-64
2023/01/10 06:38:24;;;;;;;28.73;12.57;;;;;;;;;;5081172;28;20330;-63
2023/01/10 06:40:52;;;;;;;17.10;4.28;;;;;;;;;;5078925;28;20196;-64
2023/01/10 06:43:22;;;;;;;15.45;5.95;;;;;;;;;;5078210;28;20689;-63
2023/01/10 06:45:50;;;;;;;14.93;5.05;;;;;;;;;;5078845;28;20248;-64
2023/01/10 06:48:18;;;;;;;18.77;4.97;;;;;;;;;;5083083;28;20710;-61
2023/01/10 06:50:47;;;;;;;18.92;5.28;;;;;;;;;;5098359;28;20282;-61
2023/01/10 06:53:15;;;;;;;14.32;4.15;;;;;;;;;;5081747;28;20560;-63
2023/01/10 06:55:43;;;;;;;11.57;3.55;;;;;;;;;;5077720;28;20623;-64
2023/01/10 06:58:17;;;;;;;9.32;3.40;;;;;;;;;;5079565;28;20714;-64
2023/01/10 07:00:46;;;;;;;10.10;3.72;;;;;;;;;;5077476;28;20192;-63
2023/01/10 07:03:14;;;;;;;22.90;4.18;;;;;;;;;;5075754;28;20212;-64
2023/01/10 07:05:43;;;;;;;12.82;2.85;;;;;;;;;;5076159;28;20222;-61
2023/01/10 07:08:11;;;;;;;11.95;2.97;;;;;;;;;;5078410;28;20200;-61
2023/01/10 07:10:41;;;;;;;15.00;3.33;;;;;;;;;;5082439;28;20670;-63
2023/01/10 07:13:09;;;;;;;8.75;2.78;;;;;;;;;;5083655;28;20674;-64
2023/01/10 07:15:37;;;;;;;5.57;2.80;;;;;;;;;;5093502;28;20566;-62
2023/01/10 07:18:07;;;;;;;11.13;2.65;;;;;;;;;;5075759;28;20214;-62
2023/01/10 07:20:35;;;;;;;17.92;3.25;;;;;;;;;;5077521;28;20210;-63
2023/01/10 07:23:03;;;;;;;17.10;3.60;;;;;;;;;;5081610;28;20228;-63
2023/01/10 07:25:32;;;;;;;8.85;3.30;;;;;;;;;;5080320;28;20226;-62
2023/01/10 07:28:00;;;;;;;8.13;2.40;;;;;;;;;;5080864;28;20241;-62
2023/01/10 07:30:28;;;;;;;6.82;3.08;;;;;;;;;;5089116;28;20264;-63
2023/01/10 07:32:56;;;;;;;18.77;3.25;;;;;;;;;;5090261;28;20558;-63
2023/01/10 07:35:26;;;;;;;10.10;3.03;;;;;;;;;;5083427;28;20203;-63
2023/01/10 07:37:54;;;;;;;9.27;2.63;;;;;;;;;;5093514;28;20299;-63
2023/01/10 07:40:22;;;;;;;9.65;3.15;;;;;;;;;;5076324;28;20269;-63
2023/01/10 07:42:51;;;;;;;9.18;3.40;;;;;;;;;;5075047;28;20257;-62
2023/01/10 07:45:19;;;;;;;8.57;3.80;;;;;;;;;;5079533;28;20502;-61
2023/01/10 07:47:47;;;;;;;14.65;3.90;;;;;;;;;;5085861;28;20657;-63
2023/01/10 07:50:16;;;;;;;13.23;3.42;;;;;;;;;;5095079;28;20274;-65
2023/01/10 07:52:46;;;;;;;14.68;3.38;;;;;;;;;;5080398;28;20290;-64
2023/01/10 07:55:14;;;;;;;15.55;3.33;;;;;;;;;;5086599;28;20198;-60
2023/01/10 07:57:42;;;;;;;8.45;3.45;;;;;;;;;;5079689;28;20635;-63
2023/01/10 08:00:11;;;;;;;10.90;3.35;;;;;;;;;;5094341;28;20279;-64
2023/01/10 08:02:39;;;;;;;7.78;3.05;;;;;;;;;;5079629;28;20275;-64
2023/01/10 08:05:08;;;;;;;7.82;3.30;;;;;;;;;;5080157;28;20304;-64
2023/01/10 08:07:37;;;;;;;13.20;3.90;;;;;;;;;;5079637;28;20603;-62
2023/01/10 08:10:07;;;;;;;4.13;2.20;;;;;;;;;;5075404;28;20210;-62
2023/01/10 08:12:35;;;;;;;6.75;3.33;;;;;;;;;;5074156;28;20199;-62
2023/01/10 08:15:04;;;;;;;4.90;2.60;;;;;;;;;;5075903;28;20204;-63
2023/01/10 08:17:33;;;;;;;10.68;3.45;;;;;;;;;;5079932;28;20341;-62
2023/01/10 08:20:02;;;;;;;15.35;4.60;;;;;;;;;;5076226;28;20282;-61
2023/01/10 08:22:30;;;;;;;12.35;2.72;;;;;;;;;;5075313;28;20246;-63
2023/01/10 08:24:58;;;;;;;12.75;3.20;;;;;;;;;;5075646;28;20638;-62
2023/01/10 08:27:28;;;;;;;13.05;3.22;;;;;;;;;;5073192;28;20568;-63
2023/01/10 08:29:56;;;;;;;9.82;3.35;;;;;;;;;;5073163;28;20203;-63
2023/01/10 08:32:24;;;;;;;12.23;4.38;;;;;;;;;;5075409;28;20568;-62
2023/01/10 08:34:52;;;;;;;9.55;3.05;;;;;;;;;;5074652;28;20192;-62
2023/01/10 08:37:21;;;;;;;7.45;3.83;;;;;;;;;;5073206;28;20200;-63
2023/01/10 08:39:49;;;;;;;13.55;4.68;;;;;;;;;;5074526;28;20348;-63
2023/01/10 08:42:17;;;;;;;12.65;4.38;;;;;;;;;;5073445;28;20249;-62
2023/01/10 08:44:47;;;;;;;14.40;4.45;;;;;;;;;;5073583;28;20243;-61
2023/01/10 08:47:15;;;;;;;9.07;3.60;;;;;;;;;;5088309;28;20199;-63
2023/01/10 08:49:43;;;;;;;16.25;4.40;;;;;;;;;;5081492;28;20711;-62
2023/01/10 08:52:11;;;;;;;17.77;5.13;;;;;;;;;;5099349;28;20293;-63
2023/01/10 08:54:40;;;;;;;14.65;4.20;;;;;;;;;;5100050;28;20309;-63
2023/01/10 08:57:08;;;;;;;6.75;4.00;;;;;;;;;;5099887;28;20255;-63
2023/01/10 08:59:36;;;;;;;13.48;3.80;;;;;;;;;;5093243;28;20235;-62
2023/01/10 09:02:11;;;;;;;21.83;4.57;;;;;;;;;;5091907;28;20207;-62
2023/01/10 09:04:40;;;;;;;8.75;5.00;;;;;;;;;;5074362;28;20207;-63
2023/01/10 09:07:08;;;;;;;10.70;4.35;;;;;;;;;;5074351;28;20226;-64
2023/01/10 09:09:37;;;;;;;14.45;5.15;;;;;;;;;;5077572;28;20282;-62
2023/01/10 09:12:53;;;;;;;6.13;3.33;;;;;;;;;;5073930;28;20204;-63
2023/01/10 09:14:54;;;;;;;11.45;6.25;;;;;;;;;;5077864;28;20723;-63
2023/01/10 09:17:24;;;;;;;10.43;3.97;;;;;;;;;;5083623;28;20200;-63
2023/01/10 09:19:52;;;;;;;7.18;4.00;;;;;;;;;;5092115;28;20203;-63
2023/01/10 09:22:20;;;;;;;11.35;3.95;;;;;;;;;;5088575;28;20577;-62
2023/01/10 09:24:51;;;;;;;7.63;3.80;;;;;;;;;;5076595;28;20307;-63
2023/01/10 09:27:19;;;;;;;10.32;3.92;;;;;;;;;;5073959;28;20199;-63
2023/01/10 09:29:48;;;;;;;16.88;4.35;;;;;;;;;;5089842;28;20211;-63
2023/01/10 09:32:16;;;;;;;16.42;4.50;;;;;;;;;;5092364;28;20207;-62
2023/01/10 09:34:46;;;;;;;15.60;4.05;;;;;;;;;;5075334;28;20208;-63
2023/01/10 09:37:14;;;;;;;12.65;4.80;;;;;;;;;;5085661;28;20207;-63
2023/01/10 09:39:42;;;;;;;13.38;4.05;;;;;;;;;;5087562;28;20195;-62
2023/01/10 09:42:27;;;;;;;12.60;3.30;;;;;;;;;;5081267;28;20200;-61
2023/01/10 09:45:00;;;;;;;17.45;4.45;;;;;;;;;;5085026;28;20598;-63
2023/01/10 09:47:33;;;;;;;16.50;4.38;;;;;;;;;;5083117;28;20650;-61
2023/01/10 09:50:07;;;;;;;9.43;3.70;;;;;;;;;;5075167;28;20192;-61
2023/01/10 09:52:38;;;;;;;9.45;3.10;;;;;;;;;;5076920;28;20389;-63
2023/01/10 09:55:16;;;;;;;14.00;4.07;;;;;;;;;;5079789;28;20330;-63
2023/01/10 09:57:44;;;;;;;14.75;5.38;;;;;;;;;;5080146;28;20278;-63
2023/01/10 10:00:16;;;;;;;16.20;3.75;;;;;;;;;;5078778;28;20787;-63
2023/01/10 10:02:46;;;;;;;11.00;4.00;;;;;;;;;;5079605;28;20734;-63
2023/01/10 10:05:19;;;;;;;10.93;3.50;;;;;;;;;;5072001;28;20219;-62
2023/01/10 10:07:51;;;;;;;12.27;4.93;;;;;;;;;;5085772;28;20620;-64
2023/01/10 10:10:23;;;;;;;14.95;3.53;;;;;;;;;;5097002;28;20194;-64
2023/01/10 10:12:56;;;;;;;14.90;3.58;;;;;;;;;;5095503;28;20290;-64
2023/01/10 10:15:27;;;;;;;16.38;3.90;;;;;;;;;;5076985;28;20243;-64
2023/01/10 10:18:01;;;;;;;17.10;4.43;;;;;;;;;;5081781;28;20247;-62
2023/01/10 10:20:37;;;;;;;11.15;3.63;;;;;;;;;;5084992;28;20270;-63
2023/01/10 10:23:11;;;;;;;8.65;2.72;;;;;;;;;;5085243;28;20341;-63
2023/01/10 10:25:50;;;;;;;18.38;4.28;;;;;;;;;;5089098;28;20534;-63
2023/01/10 10:28:30;;;;;;;19.60;3.97;;;;;;;;;;5074009;28;20595;-63
2023/01/10 10:31:03;;;;;;;9.90;3.00;;;;;;;;;;5075113;28;20694;-63
2023/01/10 10:33:40;;;;;;;9.63;2.80;;;;;;;;;;5074539;28;20221;-63
2023/01/10 10:36:13;;;;;;;15.73;3.40;;;;;;;;;;5074690;28;20322;-63
2023/01/10 10:38:44;;;;;;;13.05;3.38;;;;;;;;;;5079512;28;20549;-62
2023/01/10 10:41:16;;;;;;;18.45;3.50;;;;;;;;;;5076924;28;20195;-63
2023/01/10 10:43:46;;;;;;;13.23;3.05;;;;;;;;;;5077841;28;20256;-63
2023/01/10 10:46:17;;;;;;;13.70;3.50;;;;;;;;;;5076553;28;20291;-63
2023/01/10 10:48:50;;;;;;;10.65;2.40;;;;;;;;;;5081701;28;20191;-63
2023/01/10 10:51:24;;;;;;;7.10;3.03;;;;;;;;;;5084649;28;20229;-63
2023/01/10 10:53:52;;;;;;;8.57;2.72;;;;;;;;;;5084271;28;20184;-62
2023/01/10 10:56:22;;;;;;;19.83;3.75;;;;;;;;;;5096060;28;20282;-62
2023/01/10 10:58:52;;;;;;;14.90;3.67;;;;;;;;;;5092594;28;20223;-63
2023/01/10 11:01:21;;;;;;;8.20;2.47;;;;;;;;;;5088278;28;20203;-64
2023/01/10 11:03:50;;;;;;;22.42;3.33;;;;;;;;;;5095623;28;20341;-64
2023/01/10 11:06:20;;;;;;;10.35;3.00;;;;;;;;;;5087996;28;20280;-64
2023/01/10 11:08:51;;;;;;;13.93;3.67;;;;;;;;;;5084202;28;20202;-64
2023/01/10 11:11:21;;;;;;;9.18;3.05;;;;;;;;;;5077300;28;20188;-64
2023/01/10 11:13:51;;;;;;;12.43;3.95;;;;;;;;;;5079620;28;20233;-63
2023/01/10 11:16:27;;;;;;;6.57;2.15;;;;;;;;;;5090904;28;20180;-63
2023/01/10 11:19:14;;;;;;;16.05;3.65;;;;;;;;;;5088189;28;20263;-64
2023/01/10 11:21:47;;;;;;;13.13;3.30;;;;;;;;;;5086698;28;20278;-62
2023/01/10 11:24:23;;;;;;;14.18;3.03;;;;;;;;;;5094489;28;20244;-62
2023/01/10 11:26:52;;;;;;;7.80;2.50;;;;;;;;;;5088932;28;20208;-63
2023/01/10 11:29:22;;;;;;;18.35;3.60;;;;;;;;;;5078600;28;20673;-61
2023/01/10 11:31:51;;;;;;;16.33;4.03;;;;;;;;;;5074377;28;20253;-61
2023/01/10 11:34:22;;;;;;;13.23;3.47;;;;;;;;;;5074310;28;20204;-61
2023/01/10 11:36:55;;;;;;;12.45;3.10;;;;;;;;;;5075319;28;20666;-62
2023/01/10 11:39:23;;;;;;;12.70;3.70;;;;;;;;;;5072702;28;20199;-62
2023/01/10 11:41:52;;;;;;;8.93;2.20;;;;;;;;;;5073337;28;20203;-62
2023/01/10 11:44:23;;;;;;;6.18;2.30;;;;;;;;;;5072652;28;20214;-60
2023/01/10 11:46:54;;;;;;;10.18;3.58;;;;;;;;;;5074077;28;20208;-62
2023/01/10 11:49:28;;;;;;;10.57;3.05;;;;;;;;;;5079107;28;20196;-61
2023/01/10 11:52:00;;;;;;;8.77;3.38;;;;;;;;;;5074725;28;20200;-62
2023/01/10 11:54:29;;;;;;;11.23;2.90;;;;;;;;;;5092410;28;20188;-63
2023/01/10 11:56:58;;;;;;;12.73;2.78;;;;;;;;;;5076934;28;20680;-62
2023/01/10 11:59:27;;;;;;;13.40;3.05;;;;;;;;;;5074321;28;20228;-62
2023/01/10 12:01:57;;;;;;;9.57;2.95;;;;;;;;;;5075169;28;20199;-62
2023/01/10 12:04:26;;;;;;;11.45;2.95;;;;;;;;;;5078304;28;20673;-61
2023/01/10 12:06:56;;;;;;;13.00;2.70;;;;;;;;;;5080754;28;20933;-62
2023/01/10 12:09:36;;;;;;;13.02;2.90;;;;;;;;;;5090313;28;20207;-62
2023/01/10 12:12:05;;;;;;;13.80;3.42;;;;;;;;;;5089047;28;20199;-62
2023/01/10 12:14:34;;;;;;;9.18;2.40;;;;;;;;;;5076973;28;20199;-62
2023/01/10 12:17:04;;;;;;;10.73;2.35;;;;;;;;;;5079829;28;20207;-61
2023/01/10 12:19:32;;;;;;;12.82;3.25;;;;;;;;;;5080812;28;20636;-61
2023/01/10 12:22:02;;;;;;;6.93;1.60;;;;;;;;;;5081942;28;20216;-62
2023/01/10 12:24:33;;;;;;;9.48;2.80;;;;;;;;;;5080778;28;20199;-62
2023/01/10 12:27:03;;;;;;;11.60;3.00;;;;;;;;;;5078225;28;21321;-62
2023/01/10 12:29:33;;;;;;;10.15;2.97;;;;;;;;;;5071933;28;20253;-62
2023/01/10 12:32:02;;;;;;;12.13;3.22;;;;;;;;;;5071687;28;20207;-61
2023/01/10 12:34:36;;;;;;;19.38;2.47;;;;;;;;;;5079060;28;20208;-62
2023/01/10 12:37:08;;;;;;;18.45;4.05;;;;;;;;;;5077428;28;20205;-62
2023/01/10 12:39:40;;;;;;;13.40;3.45;;;;;;;;;;5078356;28;20240;-60
2023/01/10 12:45:05;;;;;;;13.68;3.33;;;;;;;;;;5085525;28;20200;-60
2023/01/10 12:47:36;;;;;;;12.75;2.40;;;;;;;;;;5083336;28;20573;-62
2023/01/10 12:50:07;;;;;;;15.48;2.85;;;;;;;;;;5080507;28;20199;-61
2023/01/10 12:52:44;;;;;;;5.72;2.50;;;;;;;;;;5082175;28;20205;-62
2023/01/10 12:55:14;;;;;;;9.27;2.92;;;;;;;;;;5083442;28;20236;-59
2023/01/10 12:57:47;;;;;;;6.15;2.50;;;;;;;;;;5076065;28;20596;-61
2023/01/10 13:00:20;;;;;;;11.30;3.67;;;;;;;;;;5083124;28;20239;-61
2023/01/10 13:02:50;;;;;;;8.73;2.60;;;;;;;;;;5083771;28;20192;-61
2023/01/10 13:05:20;;;;;;;8.93;3.03;;;;;;;;;;5092152;28;20268;-62
2023/01/10 13:07:50;;;;;;;11.02;2.63;;;;;;;;;;5078592;28;20228;-62
2023/01/10 13:10:21;;;;;;;15.40;2.72;;;;;;;;;;5083320;28;20200;-62
2023/01/10 13:12:54;;;;;;;7.95;2.10;;;;;;;;;;5081807;28;20371;-62
2023/01/10 13:15:24;;;;;;;5.72;2.20;;;;;;;;;;5071600;28;20196;-62
2023/01/10 13:17:54;;;;;;;13.98;2.42;;;;;;;;;;5079641;28;20200;-62
2023/01/10 13:20:44;;;;;;;10.30;2.95;;;;;;;;;;5074971;28;20196;-62
2023/01/10 13:23:25;;;;;;;9.73;3.00;;;;;;;;;;5075507;28;20219;-61
2023/01/10 13:25:57;;;;;;;10.38;3.15;;;;;;;;;;5079562;28;20196;-62
2023/01/10 13:28:28;;;;;;;15.65;2.67;;;;;;;;;;5082708;28;20219;-63
2023/01/10 13:30:57;;;;;;;11.63;3.10;;;;;;;;;;5080217;28;20192;-62
2023/01/10 13:33:27;;;;;;;8.43;2.65;;;;;;;;;;5077092;28;20210;-63
2023/01/10 13:35:57;;;;;;;10.10;2.53;;;;;;;;;;5074164;28;20230;-61
2023/01/10 13:38:27;;;;;;;14.93;3.22;;;;;;;;;;5091549;28;20195;-62
2023/01/10 13:41:00;;;;;;;6.95;2.35;;;;;;;;;;5074272;28;20207;-62
2023/01/10 13:43:36;;;;;;;14.50;3.75;;;;;;;;;;5082831;28;20191;-62
2023/01/10 13:46:23;;;;;;;9.25;2.05;;;;;;;;;;5077553;28;20198;-63
2023/01/10 13:49:06;;;;;;;8.05;3.03;;;;;;;;;;5084756;28;20236;-62
2023/01/10 13:51:35;;;;;;;17.10;2.80;;;;;;;;;;5077700;28;20207;-63
2023/01/10 13:54:04;;;;;;;9.73;2.35;;;;;;;;;;5076621;28;20199;-63
2023/01/10 13:56:34;;;;;;;10.13;2.67;;;;;;;;;;5089994;28;20195;-63
2023/01/10 14:04:40;;;;;;;7.60;3.83;;;;;;;;;;5083728;28;20668;-62
2023/01/10 14:07:16;;;;;;;8.70;2.72;;;;;;;;;;5071124;28;20700;-62
2023/01/10 14:09:44;;;;;;;10.20;2.50;;;;;;;;;;5071566;28;20197;-62
2023/01/10 14:12:21;;;;;;;6.88;2.90;;;;;;;;;;5071545;28;20550;-62
2023/01/10 14:14:54;;;;;;;9.32;3.97;;;;;;;;;;5069472;28;20218;-62
2023/01/10 14:17:23;;;;;;;4.38;2.60;;;;;;;;;;5071790;28;20203;-62
2023/01/10 14:19:59;;;;;;;13.23;2.83;;;;;;;;;;5078534;28;20213;-62
2023/01/10 14:22:30;;;;;;;31.83;12.95;;;;;;;;;;5073474;28;20227;-62
2023/01/10 14:24:59;;;;;;;15.80;9.20;;;;;;;;;;5073757;28;20206;-62
2023/01/10 14:27:31;;;;;;;28.67;16.65;;;;;;;;;;5092452;28;20222;-62
2023/01/10 14:30:01;;;;;;;20.00;11.90;;;;;;;;;;5087655;28;20196;-62
2023/01/10 14:32:32;;;;;;;39.38;24.90;;;;;;;;;;5080586;28;20237;-62
2023/01/10 14:35:02;;;;;;;4.22;2.75;;;;;;;;;;5083375;28;20196;-62
2023/01/10 14:37:36;;;;;;;15.65;9.85;;;;;;;;;;5085469;28;20245;-62
2023/01/10 14:40:13;;;;;;;56.08;32.00;;;;;;;;;;5082588;28;20200;-62
2023/01/10 14:42:42;;;;;;;56.42;37.25;;;;;;;;;;5085934;28;20675;-63
2023/01/10 14:45:18;;;;;;;99.10;58.28;;;;;;;;;;5095875;28;20207;-62
2023/01/10 14:47:48;;;;;;;5.57;2.60;;;;;;;;;;5087901;28;20203;-61
2023/01/10 14:50:27;;;;;;;12.10;7.13;;;;;;;;;;5092835;28;20282;-64
2023/01/10 14:52:56;;;;;;;8.07;2.85;;;;;;;;;;5078260;28;20700;-63
2023/01/10 14:55:24;;;;;;;6.45;2.83;;;;;;;;;;5091422;28;20210;-63
2023/01/10 14:57:56;;;;;;;2.63;2.40;;;;;;;;;;5092513;28;20195;-63
2023/01/10 15:00:30;;;;;;;7.82;4.45;;;;;;;;;;5096103;28;20327;-63
2023/01/10 15:03:00;;;;;;;7.30;2.90;;;;;;;;;;5095346;28;20221;-63
2023/01/10 15:05:29;;;;;;;9.13;2.47;;;;;;;;;;5095122;28;20209;-63
2023/01/10 15:08:14;;;;;;;7.53;2.30;;;;;;;;;;5095905;28;20222;-63